28PA weather

Yarrow Airport
Schwenksville, Pennsylvania, United States

Public forecast

Using degrees Fahrenheit for public forecast. Weather courtesy of forecast.io.

Closest aviation weather report (METAR) to Yarrow Airport

Closest report is Heritage Field, 5.1 nm (9.5 km) W. Retrieved 2020/04/08 23:54 UTC (1 hour ago):

KPTW 082354Z AUTO 00000KT 10SM CLR 15/11 A2963 RMK AO2 RAB12E22 SLP031 P0000 60000 T01500106 10228 20144 51026

Closest aviation forecast (TAF) to Yarrow Airport

Closest forecast is Northeast Philadelphia Airport, 22.4 nm (41.5 km) ESE. Retrieved 2020-04-09 00:22 UTC (33 minutes ago):

TAF KPNE 082320Z 0900/0924 VRB05KT P6SM FEW130 FM091000 15005KT 6SM BR BKN030 FM091200 17007KT 3SM BR OVC010 FM091400 26016G33KT 6SM SHRA BKN035 FM091800 29019G35KT P6SM SCT090